• Join FlightAware (Why Join?)
  • Login
  • US Flag 
03:33PM EDT


 

Airport Tracker/Info


-or-


 

Live Flight TrackerFlight Track Log ✈ N273SK ✈ 28-Apr-2013 ✈ KLGA - KROA

Flight Track Log - Related Links

Times and Time Zones

All times are in EDT time to prevent confusion due to time zone crossing. See the N273SK flight status page for this flight to view local times or setup timezone preferences in your user account.

Time Position Orientation Groundspeed Altitude Reporting Facility
EDT Latitude Longitude Course Direction KTS MPH feet Rate Location/Type
10:42PM 40.7500 -73.8333 259° West 156 180 1,900  Level New York TRACON
10:43PM 40.7500 -73.7833 90° East 217 250 4,700 2,760 Climbing New York TRACON
10:44PM 40.7833 -73.8333 311° West 220 253 7,500 2,580 Climbing New York TRACON
10:45PM 40.6801 -74.3263 257° West  Level FlightAware Approximate
10:45PM 40.8000 -73.9167 285° West 247 284 10,200  Level New York TRACON
10:46PM 40.6598 -74.4447 259° West  Level FlightAware Approximate
10:47PM 40.6415 -74.5636 259° West  Level FlightAware Approximate
10:47PM 40.7694 -74.0783 256° West 278 320 13,200  Level New York Center
10:48PM 40.7353 -74.1808 246° West 300 345 14,800 1,620 Climbing New York Center
10:49PM 40.7014 -74.2719 244° Southwest 310 357 16,500 1,080 Climbing New York Center
10:50PM 40.6581 -74.3931 245° Southwest 328 377 17,000 240 Climbing New York Center
10:51PM 40.6172 -74.5028 244° Southwest 359 413 17,000 720 Level New York Center
10:52PM 40.5758 -74.6208 245° Southwest 359 413 18,500 1,680 Climbing New York Center
10:53PM 40.5300 -74.7467 244° Southwest 354 407 20,500 1,800 Climbing New York Center
10:54PM 40.4864 -74.8642 244° Southwest 354 407 22,100 1,620 Climbing New York Center
10:55PM 40.4428 -74.9789 243° Southwest 354 407 23,700 1,560 Climbing New York Center
10:56PM 40.3989 -75.0989 244° Southwest 354 407 25,200 1,440 Climbing New York Center
10:57PM 40.3528 -75.2211 244° Southwest 362 417 26,700 1,260 Climbing New York Center
10:58PM 40.3131 -75.3303 245° Southwest 357 411 27,900 600 Climbing New York Center
10:59PM 40.2667 -75.4522 244° Southwest 362 417 27,900  Level New York Center
11:00PM 40.2178 -75.5769 243° Southwest 375 432 27,900  Level New York Center
11:01PM 40.1611 -75.6897 237° Southwest 400 460 27,900  Level New York Center
11:02PM 40.0994 -75.8128 237° Southwest 410 472 27,900  Level New York Center
11:03PM 40.0381 -75.9358 237° Southwest 410 472 27,900  Level New York Center
11:04PM 39.9681 -76.0525 232° Southwest 417 480 27,900  Level New York Center
11:05PM 39.9006 -76.1611 231° Southwest 411 473 27,900  Level New York Center
11:07PM 39.7675 -76.3664 230° Southwest 403 464 27,900  Level Washington Center
11:08PM 39.6958 -76.4761 230° Southwest 403 464 27,900  Level Washington Center
11:09PM 39.6200 -76.5828 227° Southwest 403 464 28,000  Climbing Washington Center
11:10PM 39.5461 -76.6950 230° Southwest 408 470 28,000  Level Washington Center
11:11PM 39.4742 -76.8042 230° Southwest 408 470 28,000  Level Washington Center
11:12PM 39.4022 -76.9103 229° Southwest 408 470 28,000  Level Washington Center
11:13PM 39.3322 -77.0217 231° Southwest 402 463 28,000 -240 Level Washington Center
11:14PM 39.2622 -77.1275 230° Southwest 402 463 27,600 -540 Descending Washington Center
11:15PM 39.1897 -77.2331 228° Southwest 402 463 27,000 -300 Descending Washington Center
11:16PM 39.1194 -77.3414 230° Southwest 402 463 27,000  Level Washington Center
11:17PM 39.0469 -77.4519 230° Southwest 402 463 27,000  Level Washington Center
11:18PM 38.9850 -77.5492 231° Southwest 402 463 27,000  Level Washington Center
11:19PM 38.9081 -77.6644 229° Southwest 395 455 27,000  Level Washington Center
11:20PM 38.8439 -77.7611 230° Southwest 400 460 27,000 -60 Level Washington Center
11:21PM 38.7753 -77.8656 230° Southwest 401 461 26,900 -780 Descending Washington Center
11:22PM 38.7064 -77.9700 230° Southwest 396 456 25,500 -1,440 Descending Washington Center
11:23PM 38.6397 -78.0689 229° Southwest 386 444 24,100 -1,260 Descending Washington Center
11:24PM 38.5731 -78.1675 229° Southwest 374 430 23,000 -600 Descending Washington Center
11:25PM 38.5064 -78.2686 230° Southwest 374 430 23,000  Level Washington Center
11:26PM 38.4372 -78.3697 229° Southwest 374 430 23,000  Level Washington Center
11:27PM 38.3703 -78.4731 230° Southwest 374 430 23,000  Level Washington Center
11:28PM 38.3011 -78.5736 229° Southwest 374 430 23,000  Level Washington Center
11:29PM 38.2336 -78.6767 230° Southwest 374 430 23,000  Level Washington Center
11:30PM 38.1644 -78.7767 229° Southwest 374 430 23,000 -300 Level Washington Center
11:31PM 38.0906 -78.8869 230° Southwest 374 430 22,400 -1,080 Descending Washington Center
11:32PM 38.0231 -78.9842 229° Southwest 374 430 20,900 -1,500 Descending Washington Center
11:33PM 37.9556 -79.0814 229° Southwest 374 430 19,400 -1,500 Descending Washington Center
11:34PM 37.8903 -79.1756 229° Southwest 374 430 17,900 -1,440 Descending Washington Center
11:35PM 37.8314 -79.2622 229° Southwest 369 425 16,600 -1,440 Descending Washington Center
11:36PM 37.7703 -79.3486 228° Southwest 357 411 15,100 -1,560 Descending Washington Center
11:37PM 37.7092 -79.4322 227° Southwest 323 372 13,500 -1,620 Descending Washington Center
11:38PM 37.6522 -79.5158 229° Southwest 309 356 12,000 -1,020 Descending Washington Center
11:39PM 37.6081 -79.5950 235° Southwest 304 350 11,500 -600 Descending Washington Center
11:40PM 37.5525 -79.6942 235° Southwest 323 372 10,800 -900 Descending Washington Center
11:41PM 37.5125 -79.7678 236° Southwest 307 353 9,800 -1,200 Descending Washington Center
11:42PM 37.4722 -79.8442 236° Southwest 273 314 8,400 -1,320 Descending Washington Center
11:43PM 37.4342 -79.9128 235° Southwest 262 302 7,300 -1,200 Descending Washington Center
11:44PM 37.3939 -79.9861 235° Southwest 250 288 6,100 -660 Descending Washington Center
11:45PM 37.3539 -80.0519 233° Southwest 243 280 6,000 -120 Descending Washington Center